Главная страница
METAR-TAF:

METAR-TAF

Аэропорты :

Бахрейн, Бахрейн

широта: 26-16N, долгота: 050-39E, высота над уровнем моря: 2 м

Текущие метеонаблюдения

Эта сводка был подготовлена 19 минут назад, в 10:00 UTC
Ветер 11 Узел от северно-северо-западный
Температура 42°C
Влажность 19%
Давление 995 hPa
Видимость 10 км и более
Нет облачности ниже 1500 м, и нет кучево-дождевой облачности

METAR: OBBI 161000Z 33011KT CAVOK 42/14 Q0995 NOSIG

Время: 13:19 (10:19 UTC)

Прогноз

Эта сводка был подготовлена 5 часа и 19 минут назад, в 05:00 UTC
Прогноз действительный с 16-го 06 UTC до 17-го 12 UTC
Ветер 13 Узел от северно-северо-западный
Видимость 10 км и более
Нет облачности ниже 1500 м, и нет кучево-дождевой облачности

TAF: OBBI 160500Z 1606/1712 33013KT CAVOK

Метеонаблюдения и прогнозы для более 4000 аэропортов (сводки METAR и TAF).

Имеющиеся станции представлены на карте желтыми и красными точками.

Чтобы увидеть название станции, наведите на нее мышь.

Затем щелкните, чтобы увидеть метеонаблюдения и метеопрогнозы.

Управление картой: чтобы увеличить масштаб, щелкните зеленые кнопки с черным крестиком; чтобы уменьшить масштаб, щелкните зеленую кнопку с тире; для просмотра соседних карт щелкайте зеленые стрелки.


METAR-TAF: